sensor_id;sensor_type;location;lat;lon;timestamp;P1;durP1;ratioP1;P2;durP2;ratioP2
40515;SDS011;26216;53.724;9.898;2022-10-16T00:01:30;4.15;;;3.15;;
40515;SDS011;26216;53.724;9.898;2022-10-16T00:03:56;4.25;;;3.40;;
40515;SDS011;26216;53.724;9.898;2022-10-16T00:06:23;4.05;;;3.13;;
40515;SDS011;26216;53.724;9.898;2022-10-16T00:08:50;3.70;;;3.08;;
40515;SDS011;26216;53.724;9.898;2022-10-16T00:11:18;3.40;;;3.05;;
40515;SDS011;26216;53.724;9.898;2022-10-16T00:13:46;3.60;;;3.10;;
40515;SDS011;26216;53.724;9.898;2022-10-16T00:16:13;4.43;;;3.42;;
40515;SDS011;26216;53.724;9.898;2022-10-16T00:18:40;5.15;;;3.50;;
40515;SDS011;26216;53.724;9.898;2022-10-16T00:21:08;3.83;;;3.20;;
40515;SDS011;26216;53.724;9.898;2022-10-16T00:23:36;4.03;;;2.97;;
40515;SDS011;26216;53.724;9.898;2022-10-16T00:26:05;3.63;;;3.03;;
40515;SDS011;26216;53.724;9.898;2022-10-16T00:28:33;5.15;;;2.90;;
40515;SDS011;26216;53.724;9.898;2022-10-16T00:31:01;5.65;;;3.58;;
40515;SDS011;26216;53.724;9.898;2022-10-16T00:33:31;5.88;;;3.17;;
40515;SDS011;26216;53.724;9.898;2022-10-16T00:35:58;4.43;;;3.42;;
40515;SDS011;26216;53.724;9.898;2022-10-16T00:38:24;5.03;;;3.25;;
40515;SDS011;26216;53.724;9.898;2022-10-16T00:40:50;4.20;;;3.50;;
40515;SDS011;26216;53.724;9.898;2022-10-16T00:43:34;4.70;;;3.20;;
40515;SDS011;26216;53.724;9.898;2022-10-16T00:46:00;3.60;;;2.88;;
40515;SDS011;26216;53.724;9.898;2022-10-16T00:48:27;3.55;;;2.55;;
40515;SDS011;26216;53.724;9.898;2022-10-16T00:50:53;4.07;;;3.00;;
40515;SDS011;26216;53.724;9.898;2022-10-16T00:53:19;3.63;;;3.05;;
40515;SDS011;26216;53.724;9.898;2022-10-16T00:55:46;3.90;;;3.03;;
40515;SDS011;26216;53.724;9.898;2022-10-16T00:58:11;3.05;;;2.47;;
40515;SDS011;26216;53.724;9.898;2022-10-16T01:00:37;3.33;;;2.72;;
40515;SDS011;26216;53.724;9.898;2022-10-16T01:03:21;3.50;;;2.47;;
40515;SDS011;26216;53.724;9.898;2022-10-16T01:06:36;3.83;;;2.40;;
40515;SDS011;26216;53.724;9.898;2022-10-16T01:11:33;2.78;;;2.08;;
40515;SDS011;26216;53.724;9.898;2022-10-16T01:14:06;3.33;;;2.22;;
40515;SDS011;26216;53.724;9.898;2022-10-16T01:17:03;3.60;;;1.90;;
40515;SDS011;26216;53.724;9.898;2022-10-16T01:22:30;3.30;;;1.70;;
40515;SDS011;26216;53.724;9.898;2022-10-16T01:25:05;2.50;;;1.67;;
40515;SDS011;26216;53.724;9.898;2022-10-16T01:27:36;2.70;;;1.77;;
40515;SDS011;26216;53.724;9.898;2022-10-16T01:30:10;2.67;;;1.77;;
40515;SDS011;26216;53.724;9.898;2022-10-16T01:32:57;3.07;;;1.30;;
40515;SDS011;26216;53.724;9.898;2022-10-16T01:40:41;1.95;;;1.33;;
40515;SDS011;26216;53.724;9.898;2022-10-16T01:43:14;1.95;;;1.27;;
40515;SDS011;26216;53.724;9.898;2022-10-16T01:45:44;3.40;;;1.20;;
40515;SDS011;26216;53.724;9.898;2022-10-16T01:48:14;1.63;;;1.30;;
40515;SDS011;26216;53.724;9.898;2022-10-16T01:50:44;2.05;;;1.65;;
40515;SDS011;26216;53.724;9.898;2022-10-16T01:53:30;2.72;;;1.38;;
40515;SDS011;26216;53.724;9.898;2022-10-16T01:55:56;2.63;;;1.42;;
40515;SDS011;26216;53.724;9.898;2022-10-16T01:58:25;4.82;;;1.80;;
40515;SDS011;26216;53.724;9.898;2022-10-16T02:00:56;2.10;;;1.38;;
40515;SDS011;26216;53.724;9.898;2022-10-16T02:03:22;1.85;;;1.13;;
40515;SDS011;26216;53.724;9.898;2022-10-16T02:05:52;3.30;;;1.70;;
40515;SDS011;26216;53.724;9.898;2022-10-16T02:08:24;2.00;;;1.30;;
40515;SDS011;26216;53.724;9.898;2022-10-16T02:10:53;3.33;;;1.30;;
40515;SDS011;26216;53.724;9.898;2022-10-16T02:13:24;2.80;;;1.70;;
40515;SDS011;26216;53.724;9.898;2022-10-16T02:15:54;2.50;;;1.77;;
40515;SDS011;26216;53.724;9.898;2022-10-16T02:18:20;2.45;;;1.60;;
40515;SDS011;26216;53.724;9.898;2022-10-16T02:20:57;2.92;;;1.60;;
40515;SDS011;26216;53.724;9.898;2022-10-16T02:26:02;4.50;;;1.75;;
40515;SDS011;26216;53.724;9.898;2022-10-16T02:28:35;3.38;;;1.50;;
40515;SDS011;26216;53.724;9.898;2022-10-16T02:31:06;1.73;;;1.20;;
40515;SDS011;26216;53.724;9.898;2022-10-16T02:33:34;1.42;;;1.00;;
40515;SDS011;26216;53.724;9.898;2022-10-16T02:36:02;3.67;;;1.38;;
40515;SDS011;26216;53.724;9.898;2022-10-16T02:38:28;2.28;;;1.25;;
40515;SDS011;26216;53.724;9.898;2022-10-16T02:40:55;2.60;;;1.10;;
40515;SDS011;26216;53.724;9.898;2022-10-16T02:43:21;2.90;;;1.55;;
40515;SDS011;26216;53.724;9.898;2022-10-16T02:45:47;2.17;;;1.20;;
40515;SDS011;26216;53.724;9.898;2022-10-16T02:48:13;2.08;;;1.30;;
40515;SDS011;26216;53.724;9.898;2022-10-16T02:50:40;2.75;;;1.30;;
40515;SDS011;26216;53.724;9.898;2022-10-16T02:53:05;1.98;;;1.20;;
40515;SDS011;26216;53.724;9.898;2022-10-16T02:55:31;2.65;;;1.38;;
40515;SDS011;26216;53.724;9.898;2022-10-16T02:57:57;2.15;;;1.00;;
40515;SDS011;26216;53.724;9.898;2022-10-16T03:00:23;2.33;;;1.17;;
40515;SDS011;26216;53.724;9.898;2022-10-16T03:02:49;1.60;;;1.00;;
40515;SDS011;26216;53.724;9.898;2022-10-16T03:05:15;2.63;;;1.02;;
40515;SDS011;26216;53.724;9.898;2022-10-16T03:07:41;4.88;;;1.30;;
40515;SDS011;26216;53.724;9.898;2022-10-16T03:10:07;1.27;;;1.10;;
40515;SDS011;26216;53.724;9.898;2022-10-16T03:12:33;1.63;;;1.00;;
40515;SDS011;26216;53.724;9.898;2022-10-16T03:14:59;1.95;;;1.10;;
40515;SDS011;26216;53.724;9.898;2022-10-16T03:17:25;1.42;;;1.00;;
40515;SDS011;26216;53.724;9.898;2022-10-16T03:19:51;1.55;;;0.90;;
40515;SDS011;26216;53.724;9.898;2022-10-16T03:22:17;2.35;;;1.10;;
40515;SDS011;26216;53.724;9.898;2022-10-16T03:24:43;1.52;;;0.93;;
40515;SDS011;26216;53.724;9.898;2022-10-16T03:27:09;1.42;;;0.90;;
40515;SDS011;26216;53.724;9.898;2022-10-16T03:29:35;1.60;;;1.00;;
40515;SDS011;26216;53.724;9.898;2022-10-16T03:32:00;1.30;;;0.80;;
40515;SDS011;26216;53.724;9.898;2022-10-16T03:34:26;1.85;;;1.00;;
40515;SDS011;26216;53.724;9.898;2022-10-16T03:36:53;1.40;;;0.77;;
40515;SDS011;26216;53.724;9.898;2022-10-16T03:39:19;0.90;;;0.70;;
40515;SDS011;26216;53.724;9.898;2022-10-16T03:41:45;1.85;;;0.90;;
40515;SDS011;26216;53.724;9.898;2022-10-16T03:44:11;1.60;;;0.90;;
40515;SDS011;26216;53.724;9.898;2022-10-16T03:46:37;1.20;;;0.80;;
40515;SDS011;26216;53.724;9.898;2022-10-16T03:49:03;1.23;;;0.77;;
40515;SDS011;26216;53.724;9.898;2022-10-16T03:51:29;1.75;;;0.70;;
40515;SDS011;26216;53.724;9.898;2022-10-16T03:53:55;1.42;;;0.75;;
40515;SDS011;26216;53.724;9.898;2022-10-16T03:56:21;2.30;;;0.90;;
40515;SDS011;26216;53.724;9.898;2022-10-16T03:58:47;1.77;;;0.90;;
40515;SDS011;26216;53.724;9.898;2022-10-16T04:01:12;2.40;;;0.95;;
40515;SDS011;26216;53.724;9.898;2022-10-16T04:03:39;2.22;;;0.95;;
40515;SDS011;26216;53.724;9.898;2022-10-16T04:06:04;1.98;;;0.82;;
40515;SDS011;26216;53.724;9.898;2022-10-16T04:08:31;2.30;;;0.80;;
40515;SDS011;26216;53.724;9.898;2022-10-16T04:11:00;0.80;;;0.70;;
40515;SDS011;26216;53.724;9.898;2022-10-16T04:13:26;1.65;;;0.75;;
40515;SDS011;26216;53.724;9.898;2022-10-16T04:15:52;1.70;;;0.90;;
40515;SDS011;26216;53.724;9.898;2022-10-16T04:18:18;2.20;;;1.13;;
40515;SDS011;26216;53.724;9.898;2022-10-16T04:20:44;5.93;;;1.20;;
40515;SDS011;26216;53.724;9.898;2022-10-16T04:23:09;1.13;;;0.80;;
40515;SDS011;26216;53.724;9.898;2022-10-16T04:25:35;1.40;;;0.85;;
40515;SDS011;26216;53.724;9.898;2022-10-16T04:28:01;1.85;;;1.08;;
40515;SDS011;26216;53.724;9.898;2022-10-16T04:30:27;1.55;;;0.80;;
40515;SDS011;26216;53.724;9.898;2022-10-16T04:32:53;3.40;;;1.15;;
40515;SDS011;26216;53.724;9.898;2022-10-16T04:35:22;1.00;;;0.77;;
40515;SDS011;26216;53.724;9.898;2022-10-16T04:37:47;1.80;;;0.80;;
40515;SDS011;26216;53.724;9.898;2022-10-16T04:40:13;2.33;;;1.25;;
40515;SDS011;26216;53.724;9.898;2022-10-16T04:42:40;2.58;;;1.02;;
40515;SDS011;26216;53.724;9.898;2022-10-16T04:45:06;2.67;;;0.82;;
40515;SDS011;26216;53.724;9.898;2022-10-16T04:47:33;1.63;;;0.95;;
40515;SDS011;26216;53.724;9.898;2022-10-16T04:49:59;1.67;;;1.10;;
40515;SDS011;26216;53.724;9.898;2022-10-16T04:52:26;3.35;;;1.30;;
40515;SDS011;26216;53.724;9.898;2022-10-16T04:54:52;1.30;;;0.82;;
40515;SDS011;26216;53.724;9.898;2022-10-16T04:57:19;2.88;;;1.02;;
40515;SDS011;26216;53.724;9.898;2022-10-16T04:59:44;2.00;;;0.85;;
40515;SDS011;26216;53.724;9.898;2022-10-16T05:02:10;2.40;;;0.80;;
40515;SDS011;26216;53.724;9.898;2022-10-16T05:04:36;1.33;;;0.82;;
40515;SDS011;26216;53.724;9.898;2022-10-16T05:07:02;1.35;;;0.90;;
40515;SDS011;26216;53.724;9.898;2022-10-16T05:09:28;2.35;;;1.15;;
40515;SDS011;26216;53.724;9.898;2022-10-16T05:11:53;1.50;;;0.80;;
40515;SDS011;26216;53.724;9.898;2022-10-16T05:14:19;1.80;;;0.80;;
40515;SDS011;26216;53.724;9.898;2022-10-16T05:16:45;1.23;;;0.90;;
40515;SDS011;26216;53.724;9.898;2022-10-16T05:19:13;2.17;;;0.82;;
40515;SDS011;26216;53.724;9.898;2022-10-16T05:21:38;3.00;;;1.17;;
40515;SDS011;26216;53.724;9.898;2022-10-16T05:24:04;1.90;;;0.98;;
40515;SDS011;26216;53.724;9.898;2022-10-16T05:26:30;1.38;;;0.63;;
40515;SDS011;26216;53.724;9.898;2022-10-16T05:28:56;1.15;;;0.90;;
40515;SDS011;26216;53.724;9.898;2022-10-16T05:31:22;1.75;;;1.20;;
40515;SDS011;26216;53.724;9.898;2022-10-16T05:33:47;2.88;;;0.93;;
40515;SDS011;26216;53.724;9.898;2022-10-16T05:36:13;3.20;;;1.30;;
40515;SDS011;26216;53.724;9.898;2022-10-16T05:38:39;2.78;;;1.27;;
40515;SDS011;26216;53.724;9.898;2022-10-16T05:41:05;2.60;;;1.10;;
40515;SDS011;26216;53.724;9.898;2022-10-16T05:43:31;3.13;;;1.08;;
40515;SDS011;26216;53.724;9.898;2022-10-16T05:45:58;2.65;;;1.13;;
40515;SDS011;26216;53.724;9.898;2022-10-16T05:48:25;1.50;;;0.90;;
40515;SDS011;26216;53.724;9.898;2022-10-16T05:53:26;2.22;;;1.20;;
40515;SDS011;26216;53.724;9.898;2022-10-16T05:55:55;2.30;;;1.30;;
40515;SDS011;26216;53.724;9.898;2022-10-16T05:58:22;2.47;;;1.48;;
40515;SDS011;26216;53.724;9.898;2022-10-16T06:00:55;2.53;;;1.45;;
40515;SDS011;26216;53.724;9.898;2022-10-16T06:03:22;1.50;;;1.20;;
40515;SDS011;26216;53.724;9.898;2022-10-16T06:05:48;2.53;;;1.50;;
40515;SDS011;26216;53.724;9.898;2022-10-16T06:08:14;2.42;;;1.35;;
40515;SDS011;26216;53.724;9.898;2022-10-16T06:10:40;1.98;;;1.30;;
40515;SDS011;26216;53.724;9.898;2022-10-16T06:13:06;2.67;;;1.40;;
40515;SDS011;26216;53.724;9.898;2022-10-16T06:15:32;2.45;;;1.30;;
40515;SDS011;26216;53.724;9.898;2022-10-16T06:17:58;2.72;;;1.52;;
40515;SDS011;26216;53.724;9.898;2022-10-16T06:20:24;2.92;;;1.67;;
40515;SDS011;26216;53.724;9.898;2022-10-16T06:22:49;3.60;;;2.03;;
40515;SDS011;26216;53.724;9.898;2022-10-16T06:25:15;3.80;;;1.70;;
40515;SDS011;26216;53.724;9.898;2022-10-16T06:27:41;2.40;;;1.50;;
40515;SDS011;26216;53.724;9.898;2022-10-16T06:30:07;2.88;;;1.77;;
40515;SDS011;26216;53.724;9.898;2022-10-16T06:32:34;3.33;;;1.48;;
40515;SDS011;26216;53.724;9.898;2022-10-16T06:35:00;3.05;;;1.75;;
40515;SDS011;26216;53.724;9.898;2022-10-16T06:37:26;2.92;;;1.55;;
40515;SDS011;26216;53.724;9.898;2022-10-16T06:39:52;3.20;;;1.90;;
40515;SDS011;26216;53.724;9.898;2022-10-16T06:42:18;3.13;;;1.60;;
40515;SDS011;26216;53.724;9.898;2022-10-16T06:44:44;3.20;;;1.80;;
40515;SDS011;26216;53.724;9.898;2022-10-16T06:47:10;4.03;;;1.60;;
40515;SDS011;26216;53.724;9.898;2022-10-16T06:49:36;2.75;;;1.50;;
40515;SDS011;26216;53.724;9.898;2022-10-16T06:52:02;2.72;;;1.42;;
40515;SDS011;26216;53.724;9.898;2022-10-16T06:54:28;2.42;;;1.45;;
40515;SDS011;26216;53.724;9.898;2022-10-16T06:56:54;2.47;;;1.70;;
40515;SDS011;26216;53.724;9.898;2022-10-16T06:59:20;3.25;;;1.90;;
40515;SDS011;26216;53.724;9.898;2022-10-16T07:01:47;3.17;;;1.80;;
40515;SDS011;26216;53.724;9.898;2022-10-16T07:04:13;3.75;;;1.95;;
40515;SDS011;26216;53.724;9.898;2022-10-16T07:06:39;3.00;;;1.90;;
40515;SDS011;26216;53.724;9.898;2022-10-16T07:09:06;3.50;;;1.70;;
40515;SDS011;26216;53.724;9.898;2022-10-16T07:11:34;2.47;;;1.73;;
40515;SDS011;26216;53.724;9.898;2022-10-16T07:14:01;2.80;;;1.80;;
40515;SDS011;26216;53.724;9.898;2022-10-16T07:16:29;2.50;;;1.83;;
40515;SDS011;26216;53.724;9.898;2022-10-16T07:18:57;3.40;;;1.83;;
40515;SDS011;26216;53.724;9.898;2022-10-16T07:21:25;2.72;;;1.60;;
40515;SDS011;26216;53.724;9.898;2022-10-16T07:23:55;3.60;;;1.70;;
40515;SDS011;26216;53.724;9.898;2022-10-16T07:26:23;4.57;;;2.17;;
40515;SDS011;26216;53.724;9.898;2022-10-16T07:28:50;3.47;;;1.85;;
40515;SDS011;26216;53.724;9.898;2022-10-16T07:31:16;3.28;;;2.00;;
40515;SDS011;26216;53.724;9.898;2022-10-16T07:33:47;3.75;;;2.13;;
40515;SDS011;26216;53.724;9.898;2022-10-16T07:36:14;2.95;;;1.90;;
40515;SDS011;26216;53.724;9.898;2022-10-16T07:38:41;4.13;;;1.98;;
40515;SDS011;26216;53.724;9.898;2022-10-16T07:41:09;3.08;;;1.73;;
40515;SDS011;26216;53.724;9.898;2022-10-16T07:43:36;2.58;;;1.83;;
40515;SDS011;26216;53.724;9.898;2022-10-16T07:46:02;4.70;;;2.42;;
40515;SDS011;26216;53.724;9.898;2022-10-16T07:48:29;4.40;;;2.13;;
40515;SDS011;26216;53.724;9.898;2022-10-16T07:51:00;3.60;;;1.90;;
40515;SDS011;26216;53.724;9.898;2022-10-16T07:53:27;4.05;;;2.42;;
40515;SDS011;26216;53.724;9.898;2022-10-16T07:55:57;2.80;;;1.80;;
40515;SDS011;26216;53.724;9.898;2022-10-16T07:58:24;3.05;;;1.88;;
40515;SDS011;26216;53.724;9.898;2022-10-16T08:00:53;5.10;;;2.33;;
40515;SDS011;26216;53.724;9.898;2022-10-16T08:03:19;3.50;;;1.90;;
40515;SDS011;26216;53.724;9.898;2022-10-16T08:05:45;2.70;;;1.65;;
40515;SDS011;26216;53.724;9.898;2022-10-16T08:08:14;2.75;;;1.65;;
40515;SDS011;26216;53.724;9.898;2022-10-16T08:10:40;3.72;;;2.40;;
40515;SDS011;26216;53.724;9.898;2022-10-16T08:13:06;3.05;;;1.88;;
40515;SDS011;26216;53.724;9.898;2022-10-16T08:15:32;3.42;;;2.00;;
40515;SDS011;26216;53.724;9.898;2022-10-16T08:18:02;3.65;;;2.00;;
40515;SDS011;26216;53.724;9.898;2022-10-16T08:20:30;3.35;;;2.47;;
40515;SDS011;26216;53.724;9.898;2022-10-16T08:22:57;3.45;;;1.98;;
40515;SDS011;26216;53.724;9.898;2022-10-16T08:25:24;3.22;;;2.15;;
40515;SDS011;26216;53.724;9.898;2022-10-16T08:27:50;3.50;;;2.17;;
40515;SDS011;26216;53.724;9.898;2022-10-16T08:30:17;3.58;;;2.45;;
40515;SDS011;26216;53.724;9.898;2022-10-16T08:32:44;3.67;;;1.95;;
40515;SDS011;26216;53.724;9.898;2022-10-16T08:35:10;3.50;;;2.28;;
40515;SDS011;26216;53.724;9.898;2022-10-16T08:37:37;3.45;;;2.08;;
40515;SDS011;26216;53.724;9.898;2022-10-16T08:40:04;3.15;;;2.10;;
40515;SDS011;26216;53.724;9.898;2022-10-16T08:42:39;3.65;;;1.90;;
40515;SDS011;26216;53.724;9.898;2022-10-16T08:50:36;2.85;;;1.83;;
40515;SDS011;26216;53.724;9.898;2022-10-16T08:53:04;4.50;;;2.28;;
40515;SDS011;26216;53.724;9.898;2022-10-16T08:55:49;3.63;;;2.10;;
40515;SDS011;26216;53.724;9.898;2022-10-16T08:58:17;2.85;;;2.03;;
40515;SDS011;26216;53.724;9.898;2022-10-16T09:00:48;3.17;;;1.90;;
40515;SDS011;26216;53.724;9.898;2022-10-16T09:11:07;4.35;;;2.05;;
40515;SDS011;26216;53.724;9.898;2022-10-16T09:13:48;3.22;;;1.90;;
40515;SDS011;26216;53.724;9.898;2022-10-16T09:16:35;2.60;;;1.45;;
40515;SDS011;26216;53.724;9.898;2022-10-16T09:21:46;3.83;;;2.05;;
40515;SDS011;26216;53.724;9.898;2022-10-16T09:24:17;2.70;;;1.70;;
40515;SDS011;26216;53.724;9.898;2022-10-16T09:26:46;3.40;;;1.80;;
40515;SDS011;26216;53.724;9.898;2022-10-16T09:29:13;2.90;;;1.20;;
40515;SDS011;26216;53.724;9.898;2022-10-16T09:31:41;4.95;;;1.80;;
40515;SDS011;26216;53.724;9.898;2022-10-16T09:34:13;2.80;;;1.80;;
40515;SDS011;26216;53.724;9.898;2022-10-16T09:36:59;2.83;;;1.67;;
40515;SDS011;26216;53.724;9.898;2022-10-16T09:39:28;2.80;;;1.58;;
40515;SDS011;26216;53.724;9.898;2022-10-16T09:41:53;2.35;;;1.50;;
40515;SDS011;26216;53.724;9.898;2022-10-16T09:49:55;3.60;;;1.80;;
40515;SDS011;26216;53.724;9.898;2022-10-16T09:52:24;3.95;;;1.65;;
40515;SDS011;26216;53.724;9.898;2022-10-16T09:54:53;2.97;;;1.60;;
40515;SDS011;26216;53.724;9.898;2022-10-16T09:57:21;5.70;;;1.48;;
40515;SDS011;26216;53.724;9.898;2022-10-16T09:59:48;3.15;;;1.50;;
40515;SDS011;26216;53.724;9.898;2022-10-16T10:02:33;2.80;;;1.20;;
40515;SDS011;26216;53.724;9.898;2022-10-16T10:05:01;2.03;;;1.00;;
40515;SDS011;26216;53.724;9.898;2022-10-16T10:07:33;1.70;;;1.25;;
40515;SDS011;26216;53.724;9.898;2022-10-16T10:10:05;3.58;;;1.50;;
40515;SDS011;26216;53.724;9.898;2022-10-16T10:12:44;2.90;;;1.33;;
40515;SDS011;26216;53.724;9.898;2022-10-16T10:15:11;2.35;;;1.02;;
40515;SDS011;26216;53.724;9.898;2022-10-16T10:17:48;3.45;;;1.10;;
40515;SDS011;26216;53.724;9.898;2022-10-16T10:20:26;2.40;;;1.38;;
40515;SDS011;26216;53.724;9.898;2022-10-16T10:22:54;2.25;;;0.95;;
40515;SDS011;26216;53.724;9.898;2022-10-16T10:31:05;3.58;;;1.17;;
40515;SDS011;26216;53.724;9.898;2022-10-16T10:34:01;3.13;;;1.00;;
40515;SDS011;26216;53.724;9.898;2022-10-16T10:36:50;4.88;;;1.20;;
40515;SDS011;26216;53.724;9.898;2022-10-16T10:39:28;3.08;;;1.08;;
40515;SDS011;26216;53.724;9.898;2022-10-16T10:42:12;3.22;;;0.95;;
40515;SDS011;26216;53.724;9.898;2022-10-16T10:44:57;3.33;;;1.10;;
40515;SDS011;26216;53.724;9.898;2022-10-16T10:50:39;2.95;;;0.90;;
40515;SDS011;26216;53.724;9.898;2022-10-16T11:05:20;1.98;;;1.00;;
40515;SDS011;26216;53.724;9.898;2022-10-16T11:08:01;3.60;;;1.10;;
40515;SDS011;26216;53.724;9.898;2022-10-16T11:10:58;3.28;;;0.93;;
40515;SDS011;26216;53.724;9.898;2022-10-16T11:16:24;2.92;;;0.80;;
40515;SDS011;26216;53.724;9.898;2022-10-16T11:18:59;3.85;;;1.27;;
40515;SDS011;26216;53.724;9.898;2022-10-16T11:21:39;5.40;;;0.93;;
40515;SDS011;26216;53.724;9.898;2022-10-16T11:24:34;2.13;;;1.00;;
40515;SDS011;26216;53.724;9.898;2022-10-16T11:27:24;2.75;;;0.82;;
40515;SDS011;26216;53.724;9.898;2022-10-16T11:29:59;2.72;;;0.90;;
40515;SDS011;26216;53.724;9.898;2022-10-16T11:32:32;2.33;;;0.88;;
40515;SDS011;26216;53.724;9.898;2022-10-16T11:35:10;2.60;;;0.85;;
40515;SDS011;26216;53.724;9.898;2022-10-16T11:37:45;2.22;;;1.10;;
40515;SDS011;26216;53.724;9.898;2022-10-16T11:40:19;3.35;;;1.00;;
40515;SDS011;26216;53.724;9.898;2022-10-16T11:43:35;1.65;;;0.70;;
40515;SDS011;26216;53.724;9.898;2022-10-16T11:46:22;3.67;;;0.90;;
40515;SDS011;26216;53.724;9.898;2022-10-16T11:48:57;5.03;;;1.15;;
40515;SDS011;26216;53.724;9.898;2022-10-16T11:51:43;2.00;;;0.70;;
40515;SDS011;26216;53.724;9.898;2022-10-16T11:54:35;2.28;;;0.77;;
40515;SDS011;26216;53.724;9.898;2022-10-16T11:57:33;3.40;;;0.88;;
40515;SDS011;26216;53.724;9.898;2022-10-16T12:00:08;2.25;;;0.80;;
40515;SDS011;26216;53.724;9.898;2022-10-16T12:03:11;1.83;;;0.63;;
40515;SDS011;26216;53.724;9.898;2022-10-16T12:08:36;2.60;;;0.75;;
40515;SDS011;26216;53.724;9.898;2022-10-16T12:11:20;1.70;;;0.63;;
40515;SDS011;26216;53.724;9.898;2022-10-16T12:14:07;2.67;;;0.90;;
40515;SDS011;26216;53.724;9.898;2022-10-16T12:17:03;3.10;;;0.98;;
40515;SDS011;26216;53.724;9.898;2022-10-16T12:19:31;2.92;;;0.93;;
40515;SDS011;26216;53.724;9.898;2022-10-16T12:21:59;2.80;;;0.88;;
40515;SDS011;26216;53.724;9.898;2022-10-16T12:24:34;3.45;;;0.70;;
40515;SDS011;26216;53.724;9.898;2022-10-16T12:29:58;2.40;;;0.77;;
40515;SDS011;26216;53.724;9.898;2022-10-16T12:34:58;2.70;;;0.90;;
40515;SDS011;26216;53.724;9.898;2022-10-16T12:37:35;1.40;;;0.60;;
40515;SDS011;26216;53.724;9.898;2022-10-16T12:40:22;5.97;;;1.08;;
40515;SDS011;26216;53.724;9.898;2022-10-16T12:42:50;2.53;;;1.00;;
40515;SDS011;26216;53.724;9.898;2022-10-16T12:47:55;2.38;;;1.10;;
40515;SDS011;26216;53.724;9.898;2022-10-16T12:50:29;1.77;;;0.80;;
40515;SDS011;26216;53.724;9.898;2022-10-16T12:52:59;2.58;;;0.70;;
40515;SDS011;26216;53.724;9.898;2022-10-16T12:55:27;4.15;;;0.80;;
40515;SDS011;26216;53.724;9.898;2022-10-16T13:00:41;2.78;;;0.90;;
40515;SDS011;26216;53.724;9.898;2022-10-16T13:08:32;3.20;;;1.05;;
40515;SDS011;26216;53.724;9.898;2022-10-16T13:22:03;2.00;;;0.65;;
40515;SDS011;26216;53.724;9.898;2022-10-16T13:30:20;3.50;;;0.80;;
40515;SDS011;26216;53.724;9.898;2022-10-16T13:32:50;2.63;;;0.82;;
40515;SDS011;26216;53.724;9.898;2022-10-16T13:35:25;5.07;;;1.10;;
40515;SDS011;26216;53.724;9.898;2022-10-16T13:38:12;2.38;;;0.60;;
40515;SDS011;26216;53.724;9.898;2022-10-16T13:46:13;1.55;;;0.50;;
40515;SDS011;26216;53.724;9.898;2022-10-16T13:48:40;4.75;;;0.90;;
40515;SDS011;26216;53.724;9.898;2022-10-16T13:51:12;2.47;;;0.90;;
40515;SDS011;26216;53.724;9.898;2022-10-16T13:53:38;1.88;;;0.85;;
40515;SDS011;26216;53.724;9.898;2022-10-16T13:56:13;2.63;;;0.80;;
40515;SDS011;26216;53.724;9.898;2022-10-16T13:58:40;4.00;;;1.02;;
40515;SDS011;26216;53.724;9.898;2022-10-16T14:01:20;1.83;;;0.70;;
40515;SDS011;26216;53.724;9.898;2022-10-16T14:03:51;2.08;;;0.65;;
40515;SDS011;26216;53.724;9.898;2022-10-16T14:06:20;2.92;;;1.20;;
40515;SDS011;26216;53.724;9.898;2022-10-16T14:08:54;4.03;;;0.95;;
40515;SDS011;26216;53.724;9.898;2022-10-16T14:11:28;3.13;;;0.90;;
40515;SDS011;26216;53.724;9.898;2022-10-16T14:13:54;2.97;;;0.63;;
40515;SDS011;26216;53.724;9.898;2022-10-16T14:16:25;6.88;;;1.27;;
40515;SDS011;26216;53.724;9.898;2022-10-16T14:18:58;3.03;;;1.20;;
40515;SDS011;26216;53.724;9.898;2022-10-16T14:21:27;3.67;;;0.98;;
40515;SDS011;26216;53.724;9.898;2022-10-16T14:23:53;3.42;;;0.73;;
40515;SDS011;26216;53.724;9.898;2022-10-16T14:26:26;1.92;;;0.75;;
40515;SDS011;26216;53.724;9.898;2022-10-16T14:29:13;2.70;;;0.77;;
40515;SDS011;26216;53.724;9.898;2022-10-16T14:31:41;2.78;;;1.00;;
40515;SDS011;26216;53.724;9.898;2022-10-16T14:37:22;2.40;;;1.02;;
40515;SDS011;26216;53.724;9.898;2022-10-16T14:39:53;2.22;;;0.88;;
40515;SDS011;26216;53.724;9.898;2022-10-16T14:42:21;2.78;;;0.98;;
40515;SDS011;26216;53.724;9.898;2022-10-16T14:44:53;3.30;;;1.02;;
40515;SDS011;26216;53.724;9.898;2022-10-16T14:47:21;2.95;;;1.45;;
40515;SDS011;26216;53.724;9.898;2022-10-16T14:49:54;1.75;;;0.50;;
40515;SDS011;26216;53.724;9.898;2022-10-16T14:52:23;4.93;;;1.05;;
40515;SDS011;26216;53.724;9.898;2022-10-16T14:54:49;2.85;;;0.95;;
40515;SDS011;26216;53.724;9.898;2022-10-16T14:57:29;4.45;;;0.90;;
40515;SDS011;26216;53.724;9.898;2022-10-16T14:59:58;2.50;;;1.00;;
40515;SDS011;26216;53.724;9.898;2022-10-16T15:02:27;3.60;;;1.27;;
40515;SDS011;26216;53.724;9.898;2022-10-16T15:04:56;1.83;;;0.75;;
40515;SDS011;26216;53.724;9.898;2022-10-16T15:07:23;1.42;;;0.63;;
40515;SDS011;26216;53.724;9.898;2022-10-16T15:09:50;2.50;;;0.70;;
40515;SDS011;26216;53.724;9.898;2022-10-16T15:12:16;2.60;;;0.80;;
40515;SDS011;26216;53.724;9.898;2022-10-16T15:14:42;2.45;;;0.70;;
40515;SDS011;26216;53.724;9.898;2022-10-16T15:17:11;3.47;;;0.70;;
40515;SDS011;26216;53.724;9.898;2022-10-16T15:19:38;2.70;;;0.93;;
40515;SDS011;26216;53.724;9.898;2022-10-16T15:22:04;2.33;;;0.85;;
40515;SDS011;26216;53.724;9.898;2022-10-16T15:24:31;3.30;;;0.90;;
40515;SDS011;26216;53.724;9.898;2022-10-16T15:26:57;2.47;;;0.80;;
40515;SDS011;26216;53.724;9.898;2022-10-16T15:29:23;2.80;;;1.05;;
40515;SDS011;26216;53.724;9.898;2022-10-16T15:31:49;1.73;;;0.90;;
40515;SDS011;26216;53.724;9.898;2022-10-16T15:34:15;0.65;;;0.40;;
40515;SDS011;26216;53.724;9.898;2022-10-16T15:36:43;1.48;;;0.60;;
40515;SDS011;26216;53.724;9.898;2022-10-16T15:39:13;2.90;;;0.90;;
40515;SDS011;26216;53.724;9.898;2022-10-16T15:41:41;1.50;;;0.57;;
40515;SDS011;26216;53.724;9.898;2022-10-16T15:44:08;2.22;;;0.65;;
40515;SDS011;26216;53.724;9.898;2022-10-16T15:46:34;2.88;;;0.93;;
40515;SDS011;26216;53.724;9.898;2022-10-16T15:49:02;1.98;;;0.70;;
40515;SDS011;26216;53.724;9.898;2022-10-16T15:51:28;1.60;;;0.65;;
40515;SDS011;26216;53.724;9.898;2022-10-16T15:53:58;1.77;;;0.60;;
40515;SDS011;26216;53.724;9.898;2022-10-16T15:56:26;1.23;;;0.50;;
40515;SDS011;26216;53.724;9.898;2022-10-16T15:58:54;2.17;;;0.65;;
40515;SDS011;26216;53.724;9.898;2022-10-16T16:01:20;4.13;;;0.70;;
40515;SDS011;26216;53.724;9.898;2022-10-16T16:03:47;2.38;;;0.60;;
40515;SDS011;26216;53.724;9.898;2022-10-16T16:06:13;2.47;;;0.60;;
40515;SDS011;26216;53.724;9.898;2022-10-16T16:08:40;2.53;;;0.70;;
40515;SDS011;26216;53.724;9.898;2022-10-16T16:11:07;1.98;;;0.50;;
40515;SDS011;26216;53.724;9.898;2022-10-16T16:13:35;1.63;;;0.70;;
40515;SDS011;26216;53.724;9.898;2022-10-16T16:16:08;1.58;;;0.50;;
40515;SDS011;26216;53.724;9.898;2022-10-16T16:18:35;1.88;;;0.60;;
40515;SDS011;26216;53.724;9.898;2022-10-16T16:21:02;2.72;;;0.77;;
40515;SDS011;26216;53.724;9.898;2022-10-16T16:23:29;2.92;;;0.63;;
40515;SDS011;26216;53.724;9.898;2022-10-16T16:26:03;2.05;;;0.50;;
40515;SDS011;26216;53.724;9.898;2022-10-16T16:28:40;1.48;;;0.50;;
40515;SDS011;26216;53.724;9.898;2022-10-16T16:31:08;0.82;;;0.43;;
40515;SDS011;26216;53.724;9.898;2022-10-16T16:33:34;1.10;;;0.60;;
40515;SDS011;26216;53.724;9.898;2022-10-16T16:36:01;1.42;;;0.50;;
40515;SDS011;26216;53.724;9.898;2022-10-16T16:38:29;1.05;;;0.50;;
40515;SDS011;26216;53.724;9.898;2022-10-16T16:40:57;1.80;;;0.55;;
40515;SDS011;26216;53.724;9.898;2022-10-16T16:43:24;1.65;;;0.50;;
40515;SDS011;26216;53.724;9.898;2022-10-16T16:45:52;1.73;;;0.50;;
40515;SDS011;26216;53.724;9.898;2022-10-16T16:48:19;1.42;;;0.50;;
40515;SDS011;26216;53.724;9.898;2022-10-16T16:50:46;2.22;;;0.65;;